Time;durP1;ratioP1;P1;durP2;ratioP2;P2;SDS_P1;SDS_P2;PMS_P1;PMS_P2;Temp;Humidity;BMP_temperature;BMP_pressure;BME280_temperature;BME280_humidity;BME280_pressure;Samples;Min_cycle;Max_cycle;Signal;HPM_P1;HPM_P2
2024/04/14 00:01:05;;;;;;;26.07;15.77;;;10.50;1.00;;;;;;5517241;25;20358;-65
2024/04/14 00:03:57;;;;;;;31.03;16.80;;;10.50;1.00;;;;;;5554456;25;20598;-66
2024/04/14 00:06:44;;;;;;;30.57;16.00;;;10.50;1.00;;;;;;5528376;25;20229;-66
2024/04/14 00:09:33;;;;;;;25.83;16.37;;;10.40;1.00;;;;;;5537054;25;20772;-65
2024/04/14 00:12:20;;;;;;;28.23;16.30;;;10.40;1.00;;;;;;5553997;25;20228;-65
2024/04/14 00:15:12;;;;;;;28.93;17.40;;;10.30;1.00;;;;;;5526274;25;20747;-66
2024/04/14 00:17:59;;;;;;;31.73;17.40;;;10.20;99.90;;;;;;5532568;25;20296;-65
2024/04/14 00:20:48;;;;;;;28.40;16.17;;;10.20;1.00;;;;;;5528824;25;20227;-66
2024/04/14 00:23:35;;;;;;;29.23;16.50;;;10.20;99.90;;;;;;5533084;25;20824;-66
2024/04/14 00:26:24;;;;;;;28.77;16.67;;;10.20;1.00;;;;;;5521900;25;20222;-65
2024/04/14 00:29:11;;;;;;;34.47;17.10;;;10.20;1.00;;;;;;5525734;25;20244;-65
2024/04/14 00:32:03;;;;;;;27.03;15.67;;;10.10;64.00;;;;;;5519192;25;20327;-65
2024/04/14 00:34:50;;;;;;;25.77;16.70;;;10.10;99.90;;;;;;5529065;25;20268;-67
2024/04/14 00:37:40;;;;;;;29.03;16.20;;;10.10;99.90;;;;;;5544344;25;20270;-67
2024/04/14 00:40:26;;;;;;;25.40;16.53;;;10.00;99.90;;;;;;5515093;25;20219;-66
2024/04/14 00:43:17;;;;;;;26.67;16.33;;;10.00;1.00;;;;;;5521109;25;20295;-66
2024/04/14 00:46:03;;;;;;;28.60;15.90;;;10.10;6.80;;;;;;5524057;25;20727;-66
2024/04/14 00:48:55;;;;;;;27.23;15.57;;;10.10;1.00;;;;;;5542517;25;20633;-65
2024/04/14 00:51:42;;;;;;;29.43;16.43;;;10.10;99.90;;;;;;5544524;25;20243;-65
2024/04/14 00:54:32;;;;;;;23.70;15.70;;;10.10;1.00;;;;;;5537804;25;20233;-66
2024/04/14 00:57:18;;;;;;;25.90;14.90;;;10.10;99.90;;;;;;5523924;25;20667;-66
2024/04/14 01:00:09;;;;;;;26.83;14.97;;;10.10;1.00;;;;;;5531785;25;20229;-66
2024/04/14 01:02:56;;;;;;;28.70;15.07;;;10.10;1.00;;;;;;5533019;25;20816;-66
2024/04/14 01:05:48;;;;;;;30.10;15.50;;;10.00;1.00;;;;;;5533703;25;20241;-66
2024/04/14 01:08:35;;;;;;;29.50;15.40;;;10.00;99.90;;;;;;5532867;25;20282;-66
2024/04/14 01:11:24;;;;;;;25.93;14.43;;;10.00;99.90;;;;;;5539877;25;20743;-66
2024/04/14 01:14:11;;;;;;;24.07;13.60;;;10.10;99.90;;;;;;5538040;25;20590;-67
2024/04/14 01:17:00;;;;;;;24.50;14.10;;;10.10;1.00;;;;;;5525182;25;20283;-67
2024/04/14 01:19:46;;;;;;;30.10;16.00;;;10.10;1.00;;;;;;5529462;25;20297;-66
2024/04/14 01:22:38;;;;;;;27.67;15.20;;;10.10;1.00;;;;;;5545717;25;20339;-66
2024/04/14 01:25:28;;;;;;;25.93;14.97;;;10.10;1.00;;;;;;5542318;25;20239;-67
2024/04/14 01:28:17;;;;;;;25.90;14.30;;;10.00;1.00;;;;;;5553932;25;20298;-66
2024/04/14 01:31:04;;;;;;;24.20;13.93;;;10.10;99.90;;;;;;5542949;25;20641;-66
2024/04/14 01:33:53;;;;;;;27.60;14.70;;;10.10;99.90;;;;;;5548030;25;20596;-66
2024/04/14 01:36:41;;;;;;;23.67;13.63;;;10.20;99.90;;;;;;5559692;25;21708;-66
2024/04/14 01:39:30;;;;;;;25.20;13.73;;;10.20;1.00;;;;;;5534710;25;20561;-66
2024/04/14 01:42:20;;;;;;;22.60;13.73;;;10.20;1.00;;;;;;5527564;25;20277;-66
2024/04/14 01:45:10;;;;;;;23.27;12.90;;;10.10;1.00;;;;;;5523297;25;20216;-65
2024/04/14 01:47:57;;;;;;;21.27;12.53;;;10.10;1.00;;;;;;5554172;25;20235;-67
2024/04/14 01:50:46;;;;;;;20.67;12.53;;;10.10;1.00;;;;;;5558168;25;20346;-66
2024/04/14 01:53:33;;;;;;;21.73;12.03;;;10.10;99.90;;;;;;5548044;25;20282;-67
2024/04/14 01:56:22;;;;;;;18.90;11.43;;;10.10;1.00;;;;;;5532050;25;20583;-65
2024/04/14 01:59:12;;;;;;;19.70;10.60;;;10.10;99.90;;;;;;5535233;25;20722;-66
2024/04/14 02:02:01;;;;;;;18.07;11.60;;;10.10;99.90;;;;;;5531966;25;20273;-66
2024/04/14 02:04:48;;;;;;;19.10;11.07;;;10.10;99.90;;;;;;5543105;25;20283;-66
2024/04/14 02:07:37;;;;;;;17.90;11.03;;;10.10;99.90;;;;;;5538670;25;20232;-66
2024/04/14 02:10:24;;;;;;;25.03;10.57;;;10.10;99.90;;;;;;5543278;25;20239;-66
2024/04/14 02:13:13;;;;;;;22.23;11.20;;;10.20;39.60;;;;;;5546201;25;20848;-66
2024/04/14 02:16:03;;;;;;;23.53;11.50;;;10.20;1.00;;;;;;5528961;25;20331;-66
2024/04/14 02:18:52;;;;;;;20.83;11.17;;;10.10;1.00;;;;;;5538438;25;20329;-66
2024/04/14 02:21:39;;;;;;;23.73;11.37;;;10.00;99.90;;;;;;5547966;25;20665;-66
2024/04/14 02:24:32;;;;;;;18.87;10.67;;;10.00;1.00;;;;;;5536968;25;20263;-66
2024/04/14 02:27:18;;;;;;;20.37;11.53;;;9.90;99.90;;;;;;5542786;25;20228;-66
2024/04/14 02:30:09;;;;;;;20.50;11.80;;;9.90;99.90;;;;;;5524353;25;20550;-65
2024/04/14 02:32:58;;;;;;;19.17;12.40;;;10.00;99.90;;;;;;5542987;25;20279;-66
2024/04/14 02:35:55;;;;;;;19.10;11.70;;;9.90;99.90;;;;;;5548454;25;20813;-66
2024/04/14 02:38:42;;;;;;;17.90;10.90;;;9.90;99.90;;;;;;5542005;25;20282;-66
2024/04/14 02:41:32;;;;;;;18.53;11.80;;;9.90;99.90;;;;;;5524430;25;20676;-66
2024/04/14 02:44:18;;;;;;;21.73;10.90;;;9.90;99.90;;;;;;5534587;25;20233;-66
2024/04/14 02:47:08;;;;;;;21.63;11.50;;;10.00;99.90;;;;;;5542420;25;20225;-66
2024/04/14 02:49:57;;;;;;;17.83;11.47;;;10.00;99.90;;;;;;5534121;25;20270;-66
2024/04/14 02:52:47;;;;;;;17.37;10.80;;;10.00;67.60;;;;;;5551216;25;20222;-66
2024/04/14 02:55:33;;;;;;;19.20;11.60;;;10.00;1.00;;;;;;5538684;25;20625;-66
2024/04/14 02:58:23;;;;;;;21.93;11.40;;;10.00;1.00;;;;;;5522432;25;20229;-67
2024/04/14 03:01:12;;;;;;;16.63;11.30;;;9.80;1.00;;;;;;5514272;25;21970;-66
2024/04/14 03:04:01;;;;;;;18.83;11.43;;;9.80;99.90;;;;;;5507494;25;20710;-66
2024/04/14 03:06:50;;;;;;;20.37;10.67;;;9.90;99.90;;;;;;5501691;25;20648;-67
2024/04/14 03:09:40;;;;;;;18.83;10.93;;;9.80;99.90;;;;;;5515734;25;20224;-66
2024/04/14 03:12:26;;;;;;;21.30;10.80;;;9.90;1.00;;;;;;5523804;25;20236;-65
2024/04/14 03:15:16;;;;;;;16.73;10.60;;;9.90;99.90;;;;;;5512755;25;20221;-65
2024/04/14 03:18:02;;;;;;;17.67;10.27;;;9.90;99.90;;;;;;5499316;25;20301;-65
2024/04/14 03:20:58;;;;;;;17.93;10.40;;;9.90;95.10;;;;;;5533741;25;20281;-65
2024/04/14 03:23:48;;;;;;;17.30;10.57;;;9.90;99.90;;;;;;5497052;25;20331;-65
2024/04/14 03:26:37;;;;;;;17.33;10.00;;;9.80;99.90;;;;;;5501966;25;20238;-65
2024/04/14 03:29:24;;;;;;;15.60;9.80;;;9.90;1.00;;;;;;5508297;25;20296;-65
2024/04/14 03:32:13;;;;;;;15.77;9.90;;;9.90;99.90;;;;;;5526313;25;20228;-67
2024/04/14 03:35:00;;;;;;;16.53;10.20;;;9.90;99.90;;;;;;5515216;25;20295;-65
2024/04/14 03:37:49;;;;;;;18.33;9.80;;;9.90;99.90;;;;;;5518369;25;20625;-66
2024/04/14 03:40:41;;;;;;;20.27;11.17;;;9.90;4.40;;;;;;5516340;25;21050;-66
2024/04/14 03:43:31;;;;;;;22.77;10.47;;;10.00;29.90;;;;;;5487323;25;20291;-66
2024/04/14 03:46:20;;;;;;;16.90;9.73;;;10.00;1.00;;;;;;5505198;25;20338;-65
2024/04/14 03:49:09;;;;;;;15.70;9.97;;;10.00;99.90;;;;;;5522901;25;20270;-65
2024/04/14 03:51:56;;;;;;;18.63;10.17;;;10.00;1.00;;;;;;5526321;25;20644;-65
2024/04/14 03:54:45;;;;;;;19.40;10.40;;;9.90;5.20;;;;;;5510677;25;20233;-65
2024/04/14 03:57:35;;;;;;;20.27;10.43;;;9.80;99.90;;;;;;5518840;26;20622;-65
2024/04/14 04:00:24;;;;;;;12.67;9.13;;;9.80;99.90;;;;;;5499116;26;21050;-65
2024/04/14 04:03:11;;;;;;;16.93;10.00;;;9.80;99.90;;;;;;5488690;26;20297;-65
2024/04/14 04:06:01;;;;;;;16.37;9.30;;;9.80;99.90;;;;;;5498400;26;20223;-65
2024/04/14 04:08:47;;;;;;;16.60;9.30;;;9.80;99.90;;;;;;5500631;26;20719;-65
2024/04/14 04:11:38;;;;;;;14.47;9.00;;;9.80;99.90;;;;;;5509972;26;20274;-65
2024/04/14 04:14:30;;;;;;;15.10;9.43;;;9.80;99.90;;;;;;5501090;26;20228;-66
2024/04/14 04:17:17;;;;;;;18.17;8.60;;;9.90;99.90;;;;;;5507482;26;20338;-66
2024/04/14 04:20:06;;;;;;;14.67;9.33;;;9.90;99.90;;;;;;5506138;26;20940;-66
2024/04/14 04:22:53;;;;;;;13.10;8.60;;;9.90;99.90;;;;;;5502085;26;20307;-66
2024/04/14 04:25:42;;;;;;;16.70;9.47;;;9.90;99.90;;;;;;5517442;26;20227;-67
2024/04/14 04:28:29;;;;;;;14.33;9.00;;;10.00;1.00;;;;;;5497685;26;20229;-66
2024/04/14 04:31:21;;;;;;;18.63;9.30;;;10.10;99.90;;;;;;5510958;26;20280;-66
2024/04/14 04:34:08;;;;;;;15.77;9.27;;;10.20;99.90;;;;;;5514574;26;20293;-67
2024/04/14 04:36:57;;;;;;;13.40;8.83;;;10.40;1.00;;;;;;5502674;26;20656;-66
2024/04/14 04:39:44;;;;;;;13.17;8.17;;;10.40;1.00;;;;;;5503715;26;20283;-66
2024/04/14 04:42:33;;;;;;;14.23;8.73;;;10.50;1.00;;;;;;5499731;26;20778;-66
2024/04/14 04:45:20;;;;;;;14.80;8.83;;;10.50;1.00;;;;;;5498704;26;20247;-66
2024/04/14 04:48:12;;;;;;;12.03;8.67;;;10.60;1.00;;;;;;5492489;26;20228;-66
2024/04/14 04:50:59;;;;;;;18.17;9.27;;;10.70;99.90;;;;;;5513446;26;20286;-66
2024/04/14 04:53:48;;;;;;;14.77;9.73;;;10.80;99.90;;;;;;5504912;26;20224;-66
2024/04/14 04:56:34;;;;;;;13.13;8.17;;;10.90;46.70;;;;;;5503869;26;20230;-66
2024/04/14 04:59:24;;;;;;;13.33;8.00;;;11.10;99.90;;;;;;5497825;26;20270;-66
2024/04/14 05:02:10;;;;;;;12.97;8.17;;;11.20;99.90;;;;;;5498583;26;20326;-66
2024/04/14 05:05:02;;;;;;;15.40;9.27;;;11.30;99.90;;;;;;5504992;26;20655;-66
2024/04/14 05:07:49;;;;;;;12.30;8.30;;;11.50;1.00;;;;;;5498253;26;20643;-66
2024/04/14 05:10:38;;;;;;;15.97;8.77;;;11.70;99.90;;;;;;5506649;26;20288;-66
2024/04/14 05:13:25;;;;;;;12.77;8.77;;;11.90;97.40;;;;;;5494764;25;20299;-66
2024/04/14 05:16:15;;;;;;;14.83;9.27;;;12.10;1.00;;;;;;5505965;26;20220;-66
2024/04/14 05:19:01;;;;;;;19.03;9.03;;;12.40;1.00;;;;;;5498148;26;20383;-66
2024/04/14 05:21:53;;;;;;;15.00;9.10;;;12.70;99.90;;;;;;5502453;26;20233;-66
2024/04/14 05:24:40;;;;;;;13.87;8.83;;;12.90;99.90;;;;;;5506920;26;20222;-67
2024/04/14 05:27:29;;;;;;;19.27;10.03;;;13.10;1.00;;;;;;5511955;26;20229;-66
2024/04/14 05:30:16;;;;;;;16.20;9.47;;;13.20;99.90;;;;;;5517856;26;20345;-66
2024/04/14 05:33:06;;;;;;;16.73;10.17;;;13.50;99.90;;;;;;5498792;26;20264;-66
2024/04/14 05:35:54;;;;;;;16.37;9.77;;;13.50;1.00;;;;;;5498687;26;20631;-66
2024/04/14 05:38:47;;;;;;;16.23;8.93;;;13.70;99.90;;;;;;5506910;26;20229;-66
2024/04/14 05:41:34;;;;;;;15.97;9.23;;;13.90;1.00;;;;;;5495140;25;20629;-67
2024/04/14 05:44:23;;;;;;;13.83;8.43;;;14.10;1.00;;;;;;5500837;26;20266;-66
2024/04/14 05:47:10;;;;;;;19.47;9.20;;;14.20;1.00;;;;;;5500091;26;20276;-66
2024/04/14 05:49:59;;;;;;;13.27;8.40;;;14.20;1.00;;;;;;5505330;26;20246;-66
2024/04/14 05:52:46;;;;;;;20.53;8.40;;;14.40;1.00;;;;;;5491082;26;20322;-66
2024/04/14 05:55:38;;;;;;;18.63;9.17;;;14.50;1.00;;;;;;5535387;25;20757;-67
2024/04/14 05:58:27;;;;;;;18.53;8.63;;;14.60;1.00;;;;;;5541580;25;20289;-66
2024/04/14 06:01:14;;;;;;;16.53;9.93;;;14.70;1.00;;;;;;5522580;25;20307;-66
2024/04/14 06:04:03;;;;;;;18.80;12.03;;;14.70;1.00;;;;;;5529107;25;20227;-66
2024/04/14 06:06:50;;;;;;;20.93;12.27;;;14.80;99.90;;;;;;5540434;25;20753;-65
2024/04/14 06:09:39;;;;;;;15.20;10.30;;;14.80;1.00;;;;;;5523619;25;20269;-67
2024/04/14 06:12:28;;;;;;;19.60;10.87;;;14.80;99.90;;;;;;5536728;25;20620;-66
2024/04/14 06:15:18;;;;;;;12.97;8.63;;;14.90;1.00;;;;;;5529495;25;20222;-66
2024/04/14 06:18:05;;;;;;;13.77;9.20;;;14.90;1.00;;;;;;5540851;25;20717;-67
2024/04/14 06:20:54;;;;;;;14.20;8.40;;;14.90;99.90;;;;;;5533417;25;20221;-66
2024/04/14 06:23:41;;;;;;;12.03;8.90;;;14.90;1.00;;;;;;5527470;25;20302;-66
2024/04/14 06:26:30;;;;;;;13.30;7.30;;;15.00;99.90;;;;;;5538450;25;20693;-66
2024/04/14 06:29:20;;;;;;;7.70;5.50;;;15.10;99.90;;;;;;5523002;25;20235;-66
2024/04/14 06:32:09;;;;;;;10.93;5.00;;;15.30;99.90;;;;;;5536923;25;20276;-65
2024/04/14 06:34:56;;;;;;;13.57;6.53;;;15.30;27.40;;;;;;5538270;25;20237;-66
2024/04/14 06:37:45;;;;;;;10.97;5.47;;;15.40;99.90;;;;;;5537976;25;20230;-65
2024/04/14 06:40:32;;;;;;;10.90;6.30;;;15.60;85.30;;;;;;5537497;25;20227;-66
2024/04/14 06:43:21;;;;;;;10.73;5.83;;;15.70;99.90;;;;;;5541463;25;20365;-66
2024/04/14 06:46:10;;;;;;;11.40;6.10;;;15.80;79.20;;;;;;5549614;25;20709;-65
2024/04/14 06:49:00;;;;;;;10.23;5.77;;;15.80;1.30;;;;;;5545451;25;20230;-65
2024/04/14 06:51:47;;;;;;;5.30;3.57;;;15.90;70.70;;;;;;5552475;25;20230;-65
2024/04/14 06:54:37;;;;;;;9.97;5.40;;;16.00;1.00;;;;;;5532375;25;20238;-65
2024/04/14 06:57:23;;;;;;;7.47;4.77;;;16.10;26.10;;;;;;5530040;25;20343;-65
2024/04/14 07:00:14;;;;;;;7.73;4.17;;;16.40;1.00;;;;;;5535602;25;20278;-65
2024/04/14 07:03:03;;;;;;;7.77;4.10;;;16.40;1.00;;;;;;5539038;25;20222;-65
2024/04/14 07:05:52;;;;;;;7.13;4.67;;;16.50;1.00;;;;;;5529081;25;20226;-65
2024/04/14 07:08:39;;;;;;;11.37;5.00;;;16.70;1.00;;;;;;5532961;25;20230;-65
2024/04/14 07:11:29;;;;;;;5.87;4.43;;;16.90;1.00;;;;;;5541566;25;20272;-65
2024/04/14 07:14:19;;;;;;;9.03;5.00;;;16.80;1.00;;;;;;5542960;25;20817;-65
2024/04/14 07:17:05;;;;;;;5.37;3.20;;;16.90;1.00;;;;;;5541481;25;20279;-65
2024/04/14 07:19:58;;;;;;;13.13;5.00;;;17.00;1.00;;;;;;5549367;25;20233;-65
2024/04/14 07:22:44;;;;;;;8.67;4.90;;;16.90;1.00;;;;;;5532502;25;20269;-65
2024/04/14 07:25:34;;;;;;;6.60;4.50;;;16.90;1.00;;;;;;5546336;25;20291;-65
2024/04/14 07:28:21;;;;;;;8.27;4.67;;;17.00;1.00;;;;;;5552313;25;20289;-66
2024/04/14 07:31:10;;;;;;;12.93;3.93;;;17.20;1.00;;;;;;5544504;25;20223;-65
2024/04/14 07:33:58;;;;;;;11.57;4.93;;;17.30;1.00;;;;;;5524888;25;20231;-65
2024/04/14 07:36:50;;;;;;;9.23;4.33;;;17.30;99.90;;;;;;5540684;25;20235;-65
2024/04/14 07:39:37;;;;;;;7.77;4.63;;;17.40;1.00;;;;;;5550659;25;20231;-66
2024/04/14 07:42:26;;;;;;;4.17;3.03;;;17.50;99.90;;;;;;5538170;25;20287;-65
2024/04/14 07:45:13;;;;;;;10.13;4.63;;;17.80;99.90;;;;;;5539959;25;20234;-65
2024/04/14 07:48:02;;;;;;;6.20;3.50;;;17.80;99.90;;;;;;5541093;25;20219;-65
2024/04/14 07:50:49;;;;;;;9.57;3.80;;;18.00;99.90;;;;;;5539284;25;20228;-66
2024/04/14 07:53:41;;;;;;;6.07;3.70;;;18.20;99.90;;;;;;5531011;25;20268;-66
2024/04/14 07:56:28;;;;;;;11.50;3.47;;;18.60;99.90;;;;;;5539490;25;20232;-65
2024/04/14 07:59:17;;;;;;;9.87;3.40;;;18.70;93.20;;;;;;5534067;25;20330;-66
2024/04/14 08:02:04;;;;;;;12.17;3.03;;;18.70;99.90;;;;;;5538990;25;20364;-66
2024/04/14 08:04:53;;;;;;;6.97;3.50;;;19.00;81.10;;;;;;5544834;25;20274;-65
2024/04/14 08:07:40;;;;;;;4.80;3.10;;;18.90;1.00;;;;;;5542562;25;20269;-65
2024/04/14 08:10:32;;;;;;;9.87;2.83;;;19.10;1.00;;;;;;5527550;25;20320;-66
2024/04/14 08:13:19;;;;;;;5.33;2.63;;;19.00;1.00;;;;;;5545738;25;20238;-65
2024/04/14 08:16:09;;;;;;;5.00;2.50;;;18.80;1.00;;;;;;5543670;25;20222;-66
2024/04/14 08:18:55;;;;;;;10.37;3.17;;;19.10;1.00;;;;;;5542124;25;20239;-66
2024/04/14 08:21:45;;;;;;;11.10;2.90;;;19.20;1.00;;;;;;5548180;25;20223;-65
2024/04/14 08:24:34;;;;;;;7.03;2.70;;;19.50;1.00;;;;;;5547219;25;20240;-65
2024/04/14 08:27:23;;;;;;;7.90;2.90;;;19.60;1.00;;;;;;5543641;25;20222;-66
2024/04/14 08:30:13;;;;;;;6.33;2.90;;;19.80;1.00;;;;;;5532750;25;20589;-65
2024/04/14 08:33:00;;;;;;;6.70;3.13;;;20.10;1.00;;;;;;5540704;25;20233;-65
2024/04/14 08:35:49;;;;;;;13.23;2.60;;;20.10;1.00;;;;;;5546044;25;20231;-65
2024/04/14 08:38:37;;;;;;;4.03;2.40;;;19.90;1.00;;;;;;5548952;25;20347;-66
2024/04/14 08:41:27;;;;;;;5.20;2.87;;;19.90;1.00;;;;;;5529914;25;20298;-66
2024/04/14 08:44:16;;;;;;;6.20;2.70;;;20.10;1.00;;;;;;5536638;25;20230;-65
2024/04/14 08:47:06;;;;;;;4.03;2.40;;;20.00;1.00;;;;;;5532571;25;20242;-65
2024/04/14 08:49:53;;;;;;;4.80;2.13;;;20.50;1.00;;;;;;5538880;25;20223;-65
2024/04/14 08:52:43;;;;;;;3.47;2.53;;;20.50;1.00;;;;;;5530584;25;20227;-65
2024/04/14 08:55:29;;;;;;;12.57;1.07;;;20.90;1.00;;;;;;5536262;25;20334;-65
2024/04/14 08:58:20;;;;;;;9.20;2.07;;;20.90;1.00;;;;;;5535468;25;20227;-65
2024/04/14 09:01:10;;;;;;;9.63;2.67;;;21.00;1.00;;;;;;5537980;25;20713;-65
2024/04/14 09:03:59;;;;;;;4.70;2.23;;;21.10;1.00;;;;;;5531760;25;20235;-64
2024/04/14 09:06:46;;;;;;;5.87;2.57;;;21.00;1.00;;;;;;5535323;25;20767;-65
2024/04/14 09:09:35;;;;;;;13.80;2.70;;;21.10;1.00;;;;;;5543320;25;20222;-65
2024/04/14 09:12:23;;;;;;;9.90;2.93;;;21.30;1.00;;;;;;5545067;25;20227;-66
2024/04/14 09:15:13;;;;;;;4.23;1.77;;;21.30;1.00;;;;;;5544359;25;20265;-65
2024/04/14 09:18:02;;;;;;;4.23;2.20;;;21.50;1.00;;;;;;5552685;25;20223;-65
2024/04/14 09:20:52;;;;;;;5.37;2.60;;;21.40;1.00;;;;;;5539166;25;20294;-65
2024/04/14 09:23:39;;;;;;;10.70;2.70;;;21.40;1.00;;;;;;5534085;25;20334;-65
2024/04/14 09:26:28;;;;;;;5.10;2.47;;;21.30;1.00;;;;;;5541559;25;20274;-65
2024/04/14 09:29:16;;;;;;;10.60;2.80;;;21.20;1.00;;;;;;5543575;25;20299;-65
2024/04/14 09:32:06;;;;;;;6.83;2.67;;;21.50;1.00;;;;;;5535971;25;20227;-65
2024/04/14 09:34:58;;;;;;;8.60;1.83;;;21.80;1.00;;;;;;5540958;25;20294;-66
2024/04/14 09:37:45;;;;;;;6.00;1.80;;;22.20;1.00;;;;;;5532156;25;20231;-65
2024/04/14 09:40:35;;;;;;;3.43;1.80;;;21.70;1.00;;;;;;5541237;25;20226;-66
2024/04/14 09:43:21;;;;;;;3.70;1.60;;;21.90;1.00;;;;;;5545473;25;20226;-66
2024/04/14 09:46:10;;;;;;;9.00;2.47;;;22.00;1.00;;;;;;5540205;25;20658;-66
2024/04/14 09:48:57;;;;;;;4.37;2.50;;;22.00;1.00;;;;;;5553984;25;20231;-66
2024/04/14 09:51:49;;;;;;;7.00;2.70;;;21.70;1.00;;;;;;5545956;25;20596;-66
2024/04/14 09:54:36;;;;;;;9.60;2.77;;;21.90;1.00;;;;;;5530873;25;20270;-66
2024/04/14 09:57:25;;;;;;;11.10;2.07;;;22.00;1.00;;;;;;5503191;25;20223;-65
2024/04/14 10:00:12;;;;;;;7.90;2.67;;;21.60;1.00;;;;;;5500617;25;20239;-66
2024/04/14 10:03:04;;;;;;;7.60;2.60;;;21.60;1.00;;;;;;5524413;25;20269;-66
2024/04/14 10:05:50;;;;;;;4.03;2.67;;;21.60;1.00;;;;;;5514412;25;20223;-65
2024/04/14 10:08:42;;;;;;;5.53;2.90;;;21.90;1.00;;;;;;5517288;25;20273;-65
2024/04/14 10:11:30;;;;;;;7.53;2.70;;;22.10;1.00;;;;;;5538544;25;20592;-66
2024/04/14 10:14:24;;;;;;;5.50;2.53;;;22.30;1.00;;;;;;5501243;25;20231;-65
2024/04/14 10:17:12;;;;;;;4.57;2.70;;;22.50;1.00;;;;;;5494256;25;20232;-65
2024/04/14 10:20:03;;;;;;;8.70;2.97;;;22.20;1.00;;;;;;5530749;25;20228;-66
2024/04/14 10:22:50;;;;;;;7.43;2.47;;;22.20;1.00;;;;;;5539336;25;20239;-65
2024/04/14 10:25:47;;;;;;;4.20;2.30;;;21.70;1.00;;;;;;5512026;25;20235;-64
2024/04/14 10:28:34;;;;;;;13.23;2.57;;;21.90;1.00;;;;;;5527155;25;20223;-65
2024/04/14 10:31:29;;;;;;;7.67;3.10;;;21.80;1.00;;;;;;5508115;25;20577;-65
2024/04/14 10:34:21;;;;;;;6.93;2.57;;;21.90;1.00;;;;;;5515543;25;20277;-65
2024/04/14 10:37:10;;;;;;;6.97;2.50;;;21.40;1.00;;;;;;5506311;25;20718;-64
2024/04/14 10:39:57;;;;;;;7.93;3.27;;;21.70;1.00;;;;;;5525133;25;20239;-65
2024/04/14 10:42:49;;;;;;;3.00;1.77;;;21.60;1.00;;;;;;5523032;25;20330;-65
2024/04/14 10:45:38;;;;;;;3.50;2.23;;;21.60;1.00;;;;;;5501540;25;20236;-65
2024/04/14 10:48:25;;;;;;;8.33;2.53;;;21.50;1.00;;;;;;5512405;25;20227;-65
2024/04/14 10:51:14;;;;;;;7.70;2.40;;;21.40;1.00;;;;;;5509735;25;20803;-65
2024/04/14 10:54:01;;;;;;;10.53;3.30;;;21.40;1.00;;;;;;5509774;25;20256;-65
2024/04/14 10:56:50;;;;;;;10.40;3.17;;;21.60;1.00;;;;;;5494525;26;20224;-65
2024/04/14 10:59:40;;;;;;;7.30;3.43;;;21.60;1.00;;;;;;5509973;26;20228;-65
2024/04/14 11:02:29;;;;;;;2.27;1.87;;;21.70;1.00;;;;;;5492129;26;20225;-64
2024/04/14 11:05:16;;;;;;;9.17;3.27;;;21.70;1.00;;;;;;5484343;26;20244;-66
2024/04/14 11:08:05;;;;;;;7.80;3.20;;;21.90;1.00;;;;;;5493522;26;20631;-65
2024/04/14 11:10:52;;;;;;;7.93;3.00;;;21.90;1.00;;;;;;5485985;26;20661;-65
2024/04/14 11:13:42;;;;;;;5.30;2.77;;;21.90;1.00;;;;;;5488524;26;20225;-65
2024/04/14 11:16:32;;;;;;;8.17;3.00;;;21.60;1.00;;;;;;5491811;26;20247;-64
2024/04/14 11:19:21;;;;;;;9.70;1.90;;;21.60;1.00;;;;;;5491372;26;20275;-64
2024/04/14 11:22:08;;;;;;;7.20;3.00;;;21.70;1.00;;;;;;5498804;26;20237;-65
2024/04/14 11:24:57;;;;;;;9.43;2.27;;;21.80;1.00;;;;;;5507069;26;20232;-64
2024/04/14 11:27:46;;;;;;;6.67;3.07;;;21.70;1.00;;;;;;5513781;26;20297;-64
2024/04/14 11:30:33;;;;;;;6.27;2.50;;;21.70;1.00;;;;;;5483414;26;20224;-65
2024/04/14 11:33:27;;;;;;;7.07;3.20;;;22.00;1.00;;;;;;5483718;26;20224;-66
2024/04/14 11:36:14;;;;;;;10.33;2.47;;;21.50;1.00;;;;;;5484915;26;20637;-64
2024/04/14 11:39:04;;;;;;;7.83;3.30;;;21.70;1.00;;;;;;5506619;26;20271;-65
2024/04/14 11:41:50;;;;;;;6.63;2.87;;;21.40;1.00;;;;;;5494060;26;20342;-65
2024/04/14 11:44:40;;;;;;;7.10;3.17;;;21.90;1.00;;;;;;5491720;26;20275;-64
2024/04/14 11:47:28;;;;;;;4.40;2.63;;;21.80;1.00;;;;;;5487584;26;20288;-65
2024/04/14 11:50:20;;;;;;;8.63;3.03;;;22.10;1.00;;;;;;5491821;26;20747;-65
2024/04/14 11:53:07;;;;;;;2.73;1.73;;;21.80;1.00;;;;;;5498188;26;20722;-64
2024/04/14 11:55:56;;;;;;;4.10;2.40;;;21.70;1.00;;;;;;5502675;25;20227;-65
2024/04/14 11:58:43;;;;;;;4.90;2.90;;;21.60;1.00;;;;;;5521440;25;20797;-65
2024/04/14 12:01:33;;;;;;;6.50;2.70;;;21.80;1.00;;;;;;5524949;25;20401;-65
2024/04/14 12:04:20;;;;;;;3.37;1.90;;;21.90;1.00;;;;;;5548162;25;21020;-65
2024/04/14 12:07:12;;;;;;;4.53;2.90;;;21.90;1.00;;;;;;5531151;25;20218;-65
2024/04/14 12:09:59;;;;;;;5.77;2.67;;;21.70;1.00;;;;;;5533193;25;20285;-64
2024/04/14 12:12:48;;;;;;;6.27;2.93;;;21.90;1.00;;;;;;5533832;25;20298;-64
2024/04/14 12:15:35;;;;;;;5.97;2.87;;;21.90;1.00;;;;;;5533006;25;20222;-65
2024/04/14 12:18:24;;;;;;;12.80;2.90;;;21.80;1.00;;;;;;5539905;25;20694;-64
2024/04/14 12:21:15;;;;;;;7.10;2.57;;;21.80;1.00;;;;;;5521733;25;20789;-65
2024/04/14 12:24:06;;;;;;;5.00;2.60;;;22.00;1.00;;;;;;5528925;25;20303;-65
2024/04/14 12:26:56;;;;;;;6.30;2.80;;;22.10;1.00;;;;;;5536864;25;20215;-65
2024/04/14 12:29:43;;;;;;;5.70;2.47;;;21.70;1.00;;;;;;5537835;25;20334;-65
2024/04/14 12:32:32;;;;;;;2.73;1.77;;;22.00;1.00;;;;;;5524182;25;20223;-65
2024/04/14 12:35:19;;;;;;;5.37;2.47;;;22.30;1.00;;;;;;5536297;25;20631;-65
2024/04/14 12:38:09;;;;;;;4.13;2.63;;;22.40;1.00;;;;;;5535320;25;20307;-65
2024/04/14 12:40:58;;;;;;;8.87;2.50;;;22.20;1.00;;;;;;5527374;25;20680;-65
2024/04/14 12:43:48;;;;;;;5.70;2.27;;;22.20;1.00;;;;;;5544286;25;20273;-65
2024/04/14 12:46:37;;;;;;;7.60;2.43;;;22.30;1.00;;;;;;5522992;25;20303;-65
2024/04/14 12:49:26;;;;;;;6.07;2.40;;;22.10;1.00;;;;;;5531695;25;20273;-65
2024/04/14 12:52:15;;;;;;;5.37;2.33;;;22.20;1.00;;;;;;5528443;25;20231;-64
2024/04/14 12:55:02;;;;;;;3.63;2.40;;;22.10;1.00;;;;;;5507570;25;20821;-64
2024/04/14 12:57:54;;;;;;;5.17;2.70;;;21.80;1.00;;;;;;5485909;26;20220;-65
2024/04/14 13:00:40;;;;;;;8.10;1.80;;;21.80;1.00;;;;;;5494364;26;20278;-64
2024/04/14 13:03:31;;;;;;;3.73;2.57;;;22.00;1.00;;;;;;5482293;26;20279;-65
2024/04/14 13:06:17;;;;;;;3.77;2.80;;;22.00;1.00;;;;;;5490477;26;20229;-65
2024/04/14 13:09:07;;;;;;;4.90;2.70;;;21.80;1.00;;;;;;5482646;26;20278;-65
2024/04/14 13:11:53;;;;;;;8.63;2.47;;;21.70;1.00;;;;;;5479707;26;20266;-65
2024/04/14 13:14:45;;;;;;;7.07;2.73;;;21.50;1.00;;;;;;5481243;26;20690;-65
2024/04/14 13:17:33;;;;;;;8.87;2.90;;;21.40;1.00;;;;;;5487571;26;20572;-65
2024/04/14 13:20:22;;;;;;;9.03;2.40;;;21.50;1.00;;;;;;5488721;26;20220;-65
2024/04/14 13:23:09;;;;;;;8.50;2.60;;;21.70;1.00;;;;;;5480187;26;20275;-64
2024/04/14 13:25:58;;;;;;;4.63;2.47;;;21.50;1.00;;;;;;5493007;26;20359;-65
2024/04/14 13:28:45;;;;;;;14.27;2.90;;;21.40;1.00;;;;;;5485979;26;20229;-64
2024/04/14 13:31:37;;;;;;;6.87;3.00;;;21.10;1.00;;;;;;5489618;26;20254;-65
2024/04/14 13:34:24;;;;;;;7.50;2.57;;;20.90;1.00;;;;;;5480571;26;20723;-64
2024/04/14 13:37:13;;;;;;;4.67;2.50;;;21.00;1.00;;;;;;5478670;26;20287;-65
2024/04/14 13:40:00;;;;;;;10.43;2.80;;;20.90;1.00;;;;;;5497604;26;20232;-64
2024/04/14 13:42:49;;;;;;;8.43;2.60;;;21.00;1.00;;;;;;5498807;26;20224;-65
2024/04/14 13:45:36;;;;;;;7.73;2.40;;;21.00;1.00;;;;;;5490578;26;20300;-65
2024/04/14 13:48:28;;;;;;;6.43;2.77;;;21.10;1.00;;;;;;5490841;26;20695;-65
2024/04/14 13:51:14;;;;;;;5.67;2.90;;;21.20;1.00;;;;;;5491640;26;20240;-65
2024/04/14 13:54:04;;;;;;;6.70;2.70;;;21.00;1.00;;;;;;5470554;26;20220;-65
2024/04/14 13:56:53;;;;;;;6.37;2.00;;;21.10;1.00;;;;;;5488248;26;20281;-64
2024/04/14 13:59:40;;;;;;;7.13;2.77;;;21.00;1.00;;;;;;5511022;26;20698;-64
2024/04/14 14:02:29;;;;;;;8.23;2.17;;;21.10;1.00;;;;;;5504954;26;20585;-64
2024/04/14 14:05:18;;;;;;;6.60;2.07;;;21.10;1.00;;;;;;5481336;26;20323;-64
2024/04/14 14:08:08;;;;;;;6.57;2.17;;;20.90;1.00;;;;;;5507008;26;20221;-65
2024/04/14 14:10:55;;;;;;;7.27;3.20;;;20.90;1.00;;;;;;5497606;26;20228;-64
2024/04/14 14:13:45;;;;;;;3.50;1.53;;;20.90;1.00;;;;;;5497737;26;20270;-64
2024/04/14 14:16:31;;;;;;;7.60;2.67;;;20.90;1.00;;;;;;5503738;26;20224;-65
2024/04/14 14:19:21;;;;;;;6.53;2.40;;;20.80;1.00;;;;;;5483417;26;20826;-64
2024/04/14 14:22:12;;;;;;;5.77;2.63;;;20.70;1.00;;;;;;5484204;26;20275;-65
2024/04/14 14:25:01;;;;;;;4.40;2.37;;;20.80;1.00;;;;;;5505358;26;20739;-65
2024/04/14 14:27:48;;;;;;;4.03;1.73;;;20.80;1.00;;;;;;5491794;26;20315;-65
2024/04/14 14:30:37;;;;;;;4.53;2.20;;;20.90;1.00;;;;;;5484618;26;20862;-64
2024/04/14 14:36:33;;;;;;;5.50;2.70;;;20.60;1.00;;;;;;5496750;26;20220;-64
2024/04/14 14:39:25;;;;;;;8.37;2.23;;;20.50;1.00;;;;;;5504799;26;20232;-64
2024/04/14 14:42:14;;;;;;;5.10;2.17;;;20.40;1.00;;;;;;5498471;26;20329;-64